AirNav   Air Wisconsin pilot careers
 
 892 users online  

MO46 Walker Airport
Louisana, Missouri, USA

GOING TO LOUISANA?


FAA INFORMATION EFFECTIVE 08 NOVEMBER 2018

Location

FAA Identifier: MO46
Lat/Long: 39-31-13.1659N / 091-10-18.5084W
39-31.219432N / 091-10.308473W
39.5203239 / -91.1718079
(estimated)
Elevation: 510 ft. / 155 m (estimated)
Variation: 02E (1995)
From city: 7 miles NW of LOUISANA, MO
Time zone: UTC -6 (UTC -5 during Daylight Saving Time)
Zip code: 63353

Airport Operations

Airport use: Private use. Permission required prior to landing
Activation date: 12/1999
Control tower: no
ARTCC: KANSAS CITY CENTER
FSS: COLUMBIA FLIGHT SERVICE STATION
Attendance: UNATNDD
Segmented circle: no

Airport Communications

WX AWOS-3 at HAE (18 nm NW): 120.775 (573-221-2584)
WX AWOS-3 at PPQ (20 nm E): 118.525 (217-285-1428)

Nearby radio navigation aids

VOR radial/distance  VOR name  Freq  Var
UINr161/20.3QUINCY VORTAC113.6005E

Airport Services

Runway Information

Runway 2/20

Dimensions: 2000 x 65 ft. / 610 x 20 m
Surface: turf
RUNWAY 2  RUNWAY 20
Traffic pattern: leftleft
Obstructions: none30 ft. pline, 300 ft. from runway

Airport Ownership and Management from official FAA records

Ownership: Privately-owned
Owner: RICHARD O. WALKER
16329 PIKE RD 114
LOUISIANA, MO 63353
Phone 573-754-4892
Manager: RICHARD O. WALKER
16329 PIKE RD 114
LOUISIANA, MO 63353
Phone 573-754-4892

Airport Operational Statistics

Aircraft based on the field: 1
Single engine airplanes: 1
    

Instrument Procedures

There are no published instrument procedures at MO46.

Some nearby airports with instrument procedures:

H19 - Bowling Green Municipal Airport (9 nm S)
KHAE - Hannibal Regional Airport (18 nm NW)
KPPQ - Pittsfield Penstone Municipal Airport (20 nm E)
KUIN - Quincy Regional Airport-Baldwin Field (25 nm N)
K52 - Cpt Ben Smith Airfield - Monroe City (27 nm W)
 
Loc | Ops | Rwys | IFR | FBO | Links
Com | Nav | Svcs | Stats | Notes

Kansas City Aviation Department
 
Area around MO46 (Walker Airport)
 
Road maps at: MapQuest Bing Google
 
Aerial photo
No photo
 
Sectional chart

 
Airport distance calculator
Flying to Walker Airport? Find the distance to fly.

From to MO46

Sunrise and sunset
Times for 18-Nov-2018
 Local
(UTC-6)
 Zulu
(UTC)
Morning civil twilight06:2412:24
Sunrise06:5312:53
Sunset16:4722:47
Evening civil twilight17:1623:16

Current date and time
Zulu (UTC)  19-Nov-2018 02:33:01
Local (UTC-6)  18-Nov-2018 20:33:01
 
METAR
KHAE 
18nm NW 
190215Z AUTO 00000KT 7SM BKN009 M01/M02 A3020 RMK AO2
KPPQ 
19nm E 
190215Z AUTO 00000KT 10SM OVC011 01/00 A3021 RMK AO2 T00101003
KUIN 
26nm N 
190154Z AUTO 00000KT 10SM BKN011 M01/M03 A3020 RMK AO2 SLP235 T10061033 $
KI63 
33nm NE 
190215Z AUTO 00000KT 10SM OVC009 00/M02 A3020 RMK AO2 T10051020
TAF
KUIN 
26nm N 
190202Z 1902/1924 VRB03KT P6SM BKN011 FM190400 VRB03KT P6SM SCT020 FM190900 VRB03KT P6SM BKN030 FM191500 22006KT P6SM BKN070 FM192200 27008KT P6SM BKN070
NOTAMs
Click for the latest NOTAMs
NOTAMs are issued by the DoD/FAA and will open in a separate window not controlled by AirNav.

 

 
 

Would you like to see your business listed on this page?

 If your business provides an interesting product or service to pilots, flight crews, aircraft, or users of the Walker Airport, you should consider listing it here.  To start the listing process, click on the button below
 
Add a business
 

Other Pages about Walker Airport

Update a link
 
Copyright © AirNav, LLC. All rights reserved. Privacy Policy  Contact